^^
Grace C. Lehan Memorial Weather Station Historical Data
Daily Summary for June 28, 2022 Units:  Both    English   Metric
Daily Weekly Monthly Yearly
  High: Low: Average:
Temperature: 33.7 °F /  0.9 °C 24.5 °F /  -4.2 °C 30.2 °F /  -1 °C
Dew Point: 28.9 °F /  -1.7 °C 17.6 °F /  -8 °C 22.8 °F /  -5.1 °C
Humidity: 85% 56.3% 74%
Wind Speed: 0.6mph /  1km/h - 0mph /  0km/h
Wind Gust: 3mph /  4.8km/h - -
Wind- - SW
Pressure: 30.18 in /  1021.9 hPa 30.06 in /  1017.8 hPa -
Precipitation: 0.01 in /  0.25 mm    
 
 
Tabular Data for June 28, 2022
Time Temperature Dew Point Pressure Wind Wind Speed Wind Gust Humidity Rainfall Rate (Hourly) solar
00:04 24.8 °F /  -4 °C 18.3 °F /  -7.6 °C 30.18in /  1021.9hPa Calm   2mph /  3.2km/h 76% 0.00in /  0mm 0 W/m2
00:09 24.8 °F /  -4 °C 18.4 °F /  -7.6 °C 30.18in /  1021.9hPa Calm     76.3% 0.00in /  0mm 0 W/m2
00:14 24.7 °F /  -4.1 °C 18.5 °F /  -7.5 °C 30.18in /  1021.9hPa Calm     77% 0.00in /  0mm 0 W/m2
00:19 24.7 °F /  -4.1 °C 18.5 °F /  -7.5 °C 30.17in /  1021.6hPa Calm     77% 0.00in /  0mm 0 W/m2
00:24 24.8 °F /  -4 °C 18.6 °F /  -7.4 °C 30.17in /  1021.6hPa Calm     77% 0.00in /  0mm 0 W/m2
00:29 24.8 °F /  -4 °C 18.6 °F /  -7.4 °C 30.17in /  1021.6hPa Calm     77% 0.00in /  0mm 0 W/m2
00:34 24.8 °F /  -4 °C 18.6 °F /  -7.4 °C 30.17in /  1021.6hPa Calm     77% 0.00in /  0mm 0 W/m2
00:39 24.8 °F /  -4 °C 18.6 °F /  -7.4 °C 30.16in /  1021.2hPa Calm     77% 0.00in /  0mm 0 W/m2
00:44 24.7 °F /  -4.1 °C 18.5 °F /  -7.5 °C 30.16in /  1021.2hPa Calm     77% 0.00in /  0mm 0 W/m2
00:49 24.7 °F /  -4.1 °C 18.5 °F /  -7.5 °C 30.16in /  1021.2hPa Calm     77% 0.00in /  0mm 0 W/m2
01:00 24.5 °F /  -4.2 °C 18.6 °F /  -7.4 °C 30.15in /  1020.9hPa Calm     78% 0.00in /  0mm 0 W/m2
01:30 24.7 °F /  -4.1 °C 19.1 °F /  -7.2 °C 30.14in /  1020.5hPa Calm   2mph /  3.2km/h 79% 0.00in /  0mm 0 W/m2
02:00 25.8 °F /  -3.4 °C 19.3 °F /  -7.1 °C 30.14in /  1020.5hPa Calm   1mph /  1.6km/h 76% 0.00in /  0mm 0 W/m2
02:30 26.1 °F /  -3.3 °C 18.3 °F /  -7.6 °C 30.14in /  1020.5hPa Calm   1mph /  1.6km/h 72% 0.00in /  0mm 0 W/m2
03:00 26.7 °F /  -2.9 °C 17.6 °F /  -8 °C 30.14in /  1020.5hPa Calm   2mph /  3.2km/h 68% 0.00in /  0mm 0 W/m2
03:30 26.8 °F /  -2.9 °C 18 °F /  -7.8 °C 30.12in /  1019.9hPa Calm     69% 0.00in /  0mm 0 W/m2
04:04 26.7 °F /  -2.9 °C 17.9 °F /  -7.8 °C 30.12in /  1019.9hPa Calm     69% 0.00in /  0mm 0 W/m2
04:09 26.7 °F /  -2.9 °C 18.2 °F /  -7.7 °C 30.12in /  1019.9hPa Calm     69.9% 0.00in /  0mm 0 W/m2
04:14 26.7 °F /  -2.9 °C 18.3 °F /  -7.6 °C 30.12in /  1019.9hPa Calm     70% 0.00in /  0mm 0 W/m2
04:19 26.7 °F /  -2.9 °C 18.3 °F /  -7.6 °C 30.11in /  1019.5hPa Calm     70% 0.00in /  0mm 0 W/m2
04:24 26.8 °F /  -2.9 °C 18.3 °F /  -7.6 °C 30.11in /  1019.5hPa Calm     70% 0.00in /  0mm 0 W/m2
04:29 26.8 °F /  -2.9 °C 18.4 °F /  -7.6 °C 30.11in /  1019.5hPa Calm     70% 0.00in /  0mm 0 W/m2
04:34 26.9 °F /  -2.8 °C 18.4 °F /  -7.6 °C 30.11in /  1019.5hPa Calm     70% 0.00in /  0mm 0 W/m2
04:39 26.9 °F /  -2.8 °C 18.5 °F /  -7.5 °C 30.11in /  1019.5hPa Calm     70% 0.00in /  0mm 0 W/m2
04:44 27 °F /  -2.8 °C 18.5 °F /  -7.5 °C 30.11in /  1019.5hPa Calm     70% 0.00in /  0mm 0 W/m2
04:49 27 °F /  -2.8 °C 18.5 °F /  -7.5 °C 30.11in /  1019.5hPa Calm     70% 0.00in /  0mm 0 W/m2
04:54 27 °F /  -2.8 °C 18.8 °F /  -7.3 °C 30.11in /  1019.5hPa Calm     70.8% 0.00in /  0mm 0 W/m2
04:59 26.9 °F /  -2.8 °C 18.8 °F /  -7.3 °C 30.11in /  1019.5hPa Calm     71% 0.00in /  0mm 0 W/m2
05:04 26.9 °F /  -2.8 °C 18.8 °F /  -7.3 °C 30.12in /  1019.9hPa Calm     71% 0.00in /  0mm 0 W/m2
05:09 26.9 °F /  -2.8 °C 19 °F /  -7.2 °C 30.11in /  1019.5hPa Calm     71.6% 0.00in /  0mm 0 W/m2
05:14 26.9 °F /  -2.8 °C 19.1 °F /  -7.2 °C 30.12in /  1019.9hPa Calm     72% 0.00in /  0mm 0 W/m2
05:19 26.8 °F /  -2.9 °C 19 °F /  -7.2 °C 30.12in /  1019.9hPa Calm     72% 0.00in /  0mm 0 W/m2
05:24 26.8 °F /  -2.9 °C 19 °F /  -7.2 °C 30.12in /  1019.9hPa Calm     72% 0.00in /  0mm 0 W/m2
05:29 26.8 °F /  -2.9 °C 19 °F /  -7.2 °C 30.12in /  1019.9hPa Calm     72% 0.00in /  0mm 0 W/m2
05:34 26.8 °F /  -2.9 °C 19 °F /  -7.2 °C 30.12in /  1019.9hPa Calm     72% 0.00in /  0mm 0 W/m2
05:39 26.8 °F /  -2.9 °C 19 °F /  -7.2 °C 30.12in /  1019.9hPa Calm     72% 0.00in /  0mm 0 W/m2
05:44 26.9 °F /  -2.8 °C 19.1 °F /  -7.2 °C 30.12in /  1019.9hPa Calm     72% 0.00in /  0mm 0 W/m2
05:49 27 °F /  -2.8 °C 19.1 °F /  -7.2 °C 30.12in /  1019.9hPa Calm     72% 0.00in /  0mm 0 W/m2
05:54 27.1 °F /  -2.7 °C 19.3 °F /  -7.1 °C 30.12in /  1019.9hPa Calm     72% 0.00in /  0mm 0 W/m2
05:59 27.2 °F /  -2.7 °C 19.3 °F /  -7.1 °C 30.12in /  1019.9hPa Calm     71.8% 0.00in /  0mm 0 W/m2
06:04 27.2 °F /  -2.7 °C 19.2 °F /  -7.1 °C 30.12in /  1019.9hPa Calm     71.4% 0.00in /  0mm 0 W/m2
06:09 27.3 °F /  -2.6 °C 19.5 °F /  -6.9 °C 30.12in /  1019.9hPa Calm     72% 0.00in /  0mm 0 W/m2
06:14 27.3 °F /  -2.6 °C 19.8 °F /  -6.8 °C 30.12in /  1019.9hPa Calm     73% 0.00in /  0mm 0 W/m2
06:19 27.4 °F /  -2.6 °C 19.8 °F /  -6.8 °C 30.12in /  1019.9hPa Calm     72.7% 0.00in /  0mm 0 W/m2
06:24 27.4 °F /  -2.6 °C 19.6 °F /  -6.9 °C 30.12in /  1019.9hPa Calm     72% 0.00in /  0mm 0 W/m2
06:29 27.5 °F /  -2.5 °C 19.7 °F /  -6.8 °C 30.12in /  1019.9hPa Calm     72% 0.00in /  0mm 0 W/m2
06:34 27.5 °F /  -2.5 °C 19.4 °F /  -7 °C 30.12in /  1019.9hPa Calm     71.1% 0.00in /  0mm 0 W/m2
06:39 27.6 °F /  -2.4 °C 19.4 °F /  -7 °C 30.12in /  1019.9hPa Calm     71% 0.00in /  0mm 0 W/m2
06:44 27.7 °F /  -2.4 °C 19.5 °F /  -6.9 °C 30.12in /  1019.9hPa Calm     71% 0.00in /  0mm 0 W/m2
06:49 27.8 °F /  -2.3 °C 19.6 °F /  -6.9 °C 30.12in /  1019.9hPa Calm   1mph /  1.6km/h 71% 0.00in /  0mm 0 W/m2
06:54 27.8 °F /  -2.3 °C 19.6 °F /  -6.9 °C 30.12in /  1019.9hPa Calm   1mph /  1.6km/h 71% 0.00in /  0mm 0 W/m2
06:59 27.8 °F /  -2.3 °C 20 °F /  -6.7 °C 30.12in /  1019.9hPa Calm   1mph /  1.6km/h 72% 0.00in /  0mm 0 W/m2
07:04 27.8 °F /  -2.3 °C 20.2 °F /  -6.6 °C 30.11in /  1019.5hPa SW 0.1mph /  0.2km/h 2mph /  3.2km/h 72.7% 0.00in /  0mm 0 W/m2
07:09 27.8 °F /  -2.3 °C 20.1 °F /  -6.6 °C 30.11in /  1019.5hPa Calm   2mph /  3.2km/h 72.3% 0.00in /  0mm 0 W/m2
07:14 27.9 °F /  -2.3 °C 20.1 °F /  -6.6 °C 30.12in /  1019.9hPa Calm   2mph /  3.2km/h 72% 0.00in /  0mm 0 W/m2
07:19 27.9 °F /  -2.3 °C 19.7 °F /  -6.8 °C 30.12in /  1019.9hPa Calm   2mph /  3.2km/h 70.8% 0.00in /  0mm 0 W/m2
07:24 28 °F /  -2.2 °C 19.5 °F /  -6.9 °C 30.12in /  1019.9hPa Calm   2mph /  3.2km/h 70% 0.00in /  0mm 9 W/m2
07:29 28.1 °F /  -2.2 °C 19.6 °F /  -6.9 °C 30.12in /  1019.9hPa Calm   2mph /  3.2km/h 70% 0.00in /  0mm 12 W/m2
07:34 28.2 °F /  -2.1 °C 19.7 °F /  -6.8 °C 30.12in /  1019.9hPa SW 0.1mph /  0.2km/h 2mph /  3.2km/h 70% 0.00in /  0mm 16 W/m2
07:39 28.3 °F /  -2.1 °C 19.8 °F /  -6.8 °C 30.12in /  1019.9hPa Calm   1mph /  1.6km/h 70% 0.00in /  0mm 18 W/m2
07:44 28.4 °F /  -2 °C 19.9 °F /  -6.7 °C 30.12in /  1019.9hPa Calm   1mph /  1.6km/h 70% 0.00in /  0mm 19 W/m2
07:49 28.5 °F /  -1.9 °C 19.7 °F /  -6.8 °C 30.12in /  1019.9hPa Calm   1mph /  1.6km/h 69.3% 0.00in /  0mm 23 W/m2
07:54 28.6 °F /  -1.9 °C 20 °F /  -6.7 °C 30.12in /  1019.9hPa Calm   1mph /  1.6km/h 69.8% 0.00in /  0mm 30 W/m2
07:59 28.6 °F /  -1.9 °C 19.8 °F /  -6.8 °C 30.12in /  1019.9hPa Calm   1mph /  1.6km/h 69% 0.00in /  0mm 32 W/m2
08:04 28.7 °F /  -1.8 °C 19.8 °F /  -6.8 °C 30.11in /  1019.5hPa Calm     69% 0.00in /  0mm 33 W/m2
08:09 28.8 °F /  -1.8 °C 19.9 °F /  -6.7 °C 30.11in /  1019.5hPa Calm     69% 0.00in /  0mm 35 W/m2
08:14 28.8 °F /  -1.8 °C 20 °F /  -6.7 °C 30.11in /  1019.5hPa Calm     69% 0.00in /  0mm 40 W/m2
08:19 28.9 °F /  -1.7 °C 19.8 °F /  -6.8 °C 30.11in /  1019.5hPa Calm     68.3% 0.00in /  0mm 47 W/m2
08:24 29 °F /  -1.7 °C 19.8 °F /  -6.8 °C 30.12in /  1019.9hPa Calm     68% 0.00in /  0mm 58 W/m2
08:29 29.2 °F /  -1.6 °C 19.9 °F /  -6.7 °C 30.12in /  1019.9hPa Calm     68% 0.00in /  0mm 67 W/m2
08:34 29.3 °F /  -1.5 °C 20.1 °F /  -6.6 °C 30.11in /  1019.5hPa Calm     68% 0.00in /  0mm 74 W/m2
08:39 29.5 °F /  -1.4 °C 20 °F /  -6.7 °C 30.12in /  1019.9hPa Calm     67.2% 0.00in /  0mm 81 W/m2
08:44 29.6 °F /  -1.3 °C 19.7 °F /  -6.8 °C 30.12in /  1019.9hPa SW 0.1mph /  0.2km/h 1mph /  1.6km/h 66.2% 0.00in /  0mm 90 W/m2
08:49 29.8 °F /  -1.2 °C 19.6 °F /  -6.9 °C 30.12in /  1019.9hPa Calm   1mph /  1.6km/h 65.5% 0.00in /  0mm 84 W/m2
08:54 29.9 °F /  -1.2 °C 20 °F /  -6.7 °C 30.12in /  1019.9hPa SW 0.3mph /  0.5km/h 2mph /  3.2km/h 66% 0.00in /  0mm 93 W/m2
08:59 30.1 °F /  -1.1 °C 19.9 °F /  -6.7 °C 30.12in /  1019.9hPa Calm   2mph /  3.2km/h 65.1% 0.00in /  0mm 97 W/m2
09:04 30.3 °F /  -0.9 °C 20 °F /  -6.7 °C 30.12in /  1019.9hPa Calm   2mph /  3.2km/h 65% 0.00in /  0mm 120 W/m2
09:09 30.5 °F /  -0.8 °C 19.6 °F /  -6.9 °C 30.12in /  1019.9hPa Calm   1mph /  1.6km/h 63.6% 0.00in /  0mm 128 W/m2
09:14 30.7 °F /  -0.7 °C 19.8 °F /  -6.8 °C 30.12in /  1019.9hPa Calm   1mph /  1.6km/h 63.5% 0.00in /  0mm 125 W/m2
09:19 30.9 °F /  -0.6 °C 20.1 °F /  -6.6 °C 30.12in /  1019.9hPa Calm   1mph /  1.6km/h 63.7% 0.00in /  0mm 125 W/m2
09:24 31.2 °F /  -0.4 °C 20.1 °F /  -6.6 °C 30.12in /  1019.9hPa Calm   1mph /  1.6km/h 63% 0.00in /  0mm 135 W/m2
09:29 31.4 °F /  -0.3 °C 20.1 °F /  -6.6 °C 30.12in /  1019.9hPa Calm   1mph /  1.6km/h 62.5% 0.00in /  0mm 144 W/m2
09:34 31.7 °F /  -0.2 °C 20.5 °F /  -6.4 °C 30.12in /  1019.9hPa Calm   1mph /  1.6km/h 62.7% 0.00in /  0mm 156 W/m2
09:39 32.1 °F /  0.1 °C 20.3 °F /  -6.5 °C 30.12in /  1019.9hPa Calm     61.5% 0.00in /  0mm 153 W/m2
09:44 32.4 °F /  0.2 °C 20.1 °F /  -6.6 °C 30.12in /  1019.9hPa Calm     60.2% 0.00in /  0mm 135 W/m2
09:49 32.6 °F /  0.3 °C 20.1 °F /  -6.6 °C 30.12in /  1019.9hPa Calm     59.6% 0.00in /  0mm 127 W/m2
09:54 32.7 °F /  0.4 °C 20.1 °F /  -6.6 °C 30.12in /  1019.9hPa Calm     59.2% 0.00in /  0mm 141 W/m2
09:59 32.8 °F /  0.4 °C 19.8 °F /  -6.8 °C 30.12in /  1019.9hPa Calm     58.4% 0.00in /  0mm 192 W/m2
10:04 33 °F /  0.6 °C 20 °F /  -6.7 °C 30.12in /  1019.9hPa Calm     58.3% 0.00in /  0mm 255 W/m2
10:09 33.2 °F /  0.7 °C 20.1 °F /  -6.6 °C 30.12in /  1019.9hPa Calm     58% 0.00in /  0mm 255 W/m2
10:14 33.5 °F /  0.8 °C 20.4 °F /  -6.4 °C 30.12in /  1019.9hPa Calm     58.2% 0.00in /  0mm 172 W/m2
10:19 33.7 °F /  0.9 °C 20.5 °F /  -6.4 °C 30.12in /  1019.9hPa Calm     57.9% 0.00in /  0mm 158 W/m2
10:24 33.7 °F /  0.9 °C 20.1 °F /  -6.6 °C 30.12in /  1019.9hPa Calm     57% 0.00in /  0mm 139 W/m2
10:29 33.7 °F /  0.9 °C 20.1 °F /  -6.6 °C 30.12in /  1019.9hPa Calm     57% 0.00in /  0mm 121 W/m2
10:34 33.6 °F /  0.9 °C 19.7 °F /  -6.8 °C 30.12in /  1019.9hPa Calm     56.3% 0.00in /  0mm 114 W/m2
10:39 33.4 °F /  0.8 °C 19.7 °F /  -6.8 °C 30.12in /  1019.9hPa Calm     56.7% 0.00in /  0mm 116 W/m2
10:44 33.4 °F /  0.8 °C 19.8 °F /  -6.8 °C 30.12in /  1019.9hPa Calm     57% 0.00in /  0mm 125 W/m2
10:49 33.3 °F /  0.7 °C 20.4 °F /  -6.4 °C 30.12in /  1019.9hPa SW 0.1mph /  0.2km/h 1mph /  1.6km/h 58.6% 0.00in /  0mm 132 W/m2
10:54 33.4 °F /  0.8 °C 21.4 °F /  -5.9 °C 30.12in /  1019.9hPa SW 0.6mph /  1km/h 3mph /  4.8km/h 60.8% 0.00in /  0mm 128 W/m2
10:59 33.5 °F /  0.8 °C 21.5 °F /  -5.8 °C 30.12in /  1019.9hPa SW 0.2mph /  0.3km/h 3mph /  4.8km/h 61% 0.00in /  0mm 121 W/m2
11:04 33.5 °F /  0.8 °C 21.7 °F /  -5.7 °C 30.12in /  1019.9hPa Calm   3mph /  4.8km/h 61.4% 0.00in /  0mm 100 W/m2
11:09 33.4 °F /  0.8 °C 22 °F /  -5.6 °C 30.12in /  1019.9hPa Calm   1mph /  1.6km/h 62.7% 0.00in /  0mm 107 W/m2
11:14 33 °F /  0.6 °C 22.5 °F /  -5.3 °C 30.12in /  1019.9hPa Calm   1mph /  1.6km/h 65.1% 0.00in /  0mm 118 W/m2
11:19 32.7 °F /  0.4 °C 23.1 °F /  -4.9 °C 30.12in /  1019.9hPa Calm   1mph /  1.6km/h 67.4% 0.00in /  0mm 139 W/m2
11:24 32.4 °F /  0.2 °C 23.5 °F /  -4.7 °C 30.12in /  1019.9hPa Calm   1mph /  1.6km/h 69.5% 0.00in /  0mm 141 W/m2
11:29 32.2 °F /  0.1 °C 23.9 °F /  -4.5 °C 30.12in /  1019.9hPa Calm   1mph /  1.6km/h 71.3% 0.00in /  0mm 141 W/m2
11:34 32 °F /  0 °C 24.3 °F /  -4.3 °C 30.12in /  1019.9hPa Calm   1mph /  1.6km/h 72.8% 0.00in /  0mm 137 W/m2
11:39 32 °F /  0 °C 24.7 °F /  -4.1 °C 30.12in /  1019.9hPa SW 0.1mph /  0.2km/h 2mph /  3.2km/h 74.1% 0.00in /  0mm 137 W/m2
11:44 32 °F /  0 °C 25.1 °F /  -3.8 °C 30.11in /  1019.5hPa Calm   2mph /  3.2km/h 75.2% 0.00in /  0mm 118 W/m2
11:49 31.9 °F /  -0.1 °C 25.2 °F /  -3.8 °C 30.11in /  1019.5hPa Calm   2mph /  3.2km/h 76% 0.00in /  0mm 120 W/m2
11:54 31.9 °F /  -0.1 °C 25.5 °F /  -3.6 °C 30.11in /  1019.5hPa Calm   2mph /  3.2km/h 76.8% 0.00in /  0mm 127 W/m2
11:59 31.9 °F /  -0.1 °C 25.8 °F /  -3.4 °C 30.11in /  1019.5hPa Calm   2mph /  3.2km/h 77.8% 0.00in /  0mm 127 W/m2
12:00 31.8 °F /  -0.1 °C 25.7 °F /  -3.5 °C 30.11in /  1019.5hPa Calm   2mph /  3.2km/h 78% 0.00in /  0mm 120 W/m2
12:09 31.5 °F /  -0.3 °C 25.6 °F /  -3.6 °C 30.11in /  1019.5hPa Calm     78.4% 0.00in /  0mm 139 W/m2
12:14 31.5 °F /  -0.3 °C 26 °F /  -3.3 °C 30.10in /  1019.2hPa Calm     79.8% 0.00in /  0mm 153 W/m2
12:19 31.5 °F /  -0.3 °C 26.3 °F /  -3.2 °C 30.10in /  1019.2hPa Calm     80.9% 0.01in /  0.25mm 149 W/m2
12:24 31.5 °F /  -0.3 °C 26.5 °F /  -3.1 °C 30.10in /  1019.2hPa Calm     81.3% 0.01in /  0.25mm 135 W/m2
12:29 31.5 °F /  -0.3 °C 26.6 °F /  -3 °C 30.10in /  1019.2hPa Calm     82% 0.01in /  0.25mm 134 W/m2
12:34 31.4 °F /  -0.3 °C 26.5 °F /  -3.1 °C 30.10in /  1019.2hPa Calm     82% 0.01in /  0.25mm 130 W/m2
12:39 31.2 °F /  -0.4 °C 26.5 °F /  -3.1 °C 30.10in /  1019.2hPa Calm     82.5% 0.01in /  0.25mm 134 W/m2
12:44 31.2 °F /  -0.4 °C 26.7 °F /  -2.9 °C 30.10in /  1019.2hPa Calm     83% 0.01in /  0.25mm 169 W/m2
12:49 31.2 °F /  -0.4 °C 26.9 °F /  -2.8 °C 30.09in /  1018.8hPa Calm     83.7% 0.01in /  0.25mm 171 W/m2
12:54 31.3 °F /  -0.4 °C 27.1 °F /  -2.7 °C 30.09in /  1018.8hPa Calm     84% 0.01in /  0.25mm 179 W/m2
12:59 31.4 °F /  -0.3 °C 27.2 °F /  -2.7 °C 30.09in /  1018.8hPa Calm     84% 0.01in /  0.25mm 188 W/m2
13:04 31.5 °F /  -0.3 °C 27.3 °F /  -2.6 °C 30.09in /  1018.8hPa Calm     84% 0.01in /  0.25mm 195 W/m2
13:09 31.7 °F /  -0.2 °C 27.4 °F /  -2.6 °C 30.08in /  1018.5hPa Calm     84% 0.01in /  0.25mm 209 W/m2
13:14 31.8 °F /  -0.1 °C 27.5 °F /  -2.5 °C 30.08in /  1018.5hPa Calm     84% 0.01in /  0.25mm 211 W/m2
13:19 31.9 °F /  -0.1 °C 27.6 °F /  -2.4 °C 30.08in /  1018.5hPa SW 0.1mph /  0.2km/h 2mph /  3.2km/h 84% 0.01in /  0.25mm 195 W/m2
13:24 32 °F /  0 °C 27.7 °F /  -2.4 °C 30.08in /  1018.5hPa Calm   2mph /  3.2km/h 84% 0.01in /  0.25mm 202 W/m2
13:29 32 °F /  0 °C 27.7 °F /  -2.4 °C 30.08in /  1018.5hPa Calm   2mph /  3.2km/h 84% 0.01in /  0.25mm 209 W/m2
13:34 32 °F /  0 °C 27.7 °F /  -2.4 °C 30.08in /  1018.5hPa Calm   2mph /  3.2km/h 84% 0.01in /  0.25mm 211 W/m2
13:39 32.2 °F /  0.1 °C 28 °F /  -2.2 °C 30.08in /  1018.5hPa Calm     84.3% 0.00in /  0mm 211 W/m2
13:44 32.3 °F /  0.2 °C 28 °F /  -2.2 °C 30.08in /  1018.5hPa Calm     84% 0.00in /  0mm 183 W/m2
13:49 32.4 °F /  0.2 °C 28.2 °F /  -2.1 °C 30.08in /  1018.5hPa Calm     84.4% 0.00in /  0mm 190 W/m2
13:54 32.6 °F /  0.3 °C 28.3 °F /  -2.1 °C 30.08in /  1018.5hPa Calm     84% 0.00in /  0mm 158 W/m2
13:59 32.7 °F /  0.4 °C 28.6 °F /  -1.9 °C 30.08in /  1018.5hPa Calm   1mph /  1.6km/h 84.5% 0.00in /  0mm 167 W/m2
14:04 32.9 °F /  0.5 °C 28.9 °F /  -1.7 °C 30.08in /  1018.5hPa Calm   1mph /  1.6km/h 85% 0.00in /  0mm 183 W/m2
14:09 32.9 °F /  0.5 °C 28.6 °F /  -1.9 °C 30.07in /  1018.2hPa Calm     84% 0.00in /  0mm 192 W/m2
14:14 32.9 °F /  0.5 °C 28.6 °F /  -1.9 °C 30.07in /  1018.2hPa Calm     84% 0.00in /  0mm 172 W/m2
14:19 33 °F /  0.6 °C 28.7 °F /  -1.8 °C 30.07in /  1018.2hPa Calm     84% 0.00in /  0mm 185 W/m2
14:24 33.1 °F /  0.6 °C 28.8 °F /  -1.8 °C 30.07in /  1018.2hPa Calm     84% 0.00in /  0mm 186 W/m2
14:29 33.3 °F /  0.7 °C 28.8 °F /  -1.8 °C 30.07in /  1018.2hPa Calm     83.6% 0.00in /  0mm 174 W/m2
14:34 33.3 °F /  0.7 °C 28.5 °F /  -1.9 °C 30.07in /  1018.2hPa SW 0.3mph /  0.5km/h 3mph /  4.8km/h 82.3% 0.00in /  0mm 195 W/m2
14:39 33.3 °F /  0.7 °C 28.6 °F /  -1.9 °C 30.07in /  1018.2hPa Calm   3mph /  4.8km/h 82.5% 0.00in /  0mm 197 W/m2
14:44 33.4 °F /  0.8 °C 28.6 °F /  -1.9 °C 30.07in /  1018.2hPa Calm   3mph /  4.8km/h 82.2% 0.00in /  0mm 153 W/m2
14:49 33.5 °F /  0.8 °C 28.6 °F /  -1.9 °C 30.07in /  1018.2hPa Calm   3mph /  4.8km/h 82% 0.00in /  0mm 139 W/m2
14:54 33.5 °F /  0.8 °C 28.6 °F /  -1.9 °C 30.07in /  1018.2hPa SW 0.1mph /  0.2km/h 3mph /  4.8km/h 82% 0.00in /  0mm 169 W/m2
14:59 33.5 °F /  0.8 °C 28.6 °F /  -1.9 °C 30.07in /  1018.2hPa Calm   3mph /  4.8km/h 82% 0.00in /  0mm 169 W/m2
15:04 33.5 °F /  0.8 °C 28.6 °F /  -1.9 °C 30.07in /  1018.2hPa SW 0.1mph /  0.2km/h 3mph /  4.8km/h 82% 0.00in /  0mm 137 W/m2
15:09 33.5 °F /  0.8 °C 28.6 °F /  -1.9 °C 30.07in /  1018.2hPa SW 0.1mph /  0.2km/h 3mph /  4.8km/h 82% 0.00in /  0mm 109 W/m2
15:14 33.3 °F /  0.7 °C 28.4 °F /  -2 °C 30.07in /  1018.2hPa SW 0.3mph /  0.5km/h 3mph /  4.8km/h 82% 0.00in /  0mm 109 W/m2
15:19 33.2 °F /  0.7 °C 28.3 °F /  -2.1 °C 30.07in /  1018.2hPa Calm   3mph /  4.8km/h 82% 0.00in /  0mm 116 W/m2
15:24 33.2 °F /  0.7 °C 28.6 °F /  -1.9 °C 30.06in /  1017.8hPa SW 0.1mph /  0.2km/h 3mph /  4.8km/h 83% 0.00in /  0mm 116 W/m2
15:29 33.2 °F /  0.7 °C 28.6 °F /  -1.9 °C 30.06in /  1017.8hPa Calm   3mph /  4.8km/h 82.9% 0.00in /  0mm 83 W/m2
15:34 33.2 °F /  0.7 °C 28.3 °F /  -2.1 °C 30.06in /  1017.8hPa Calm   3mph /  4.8km/h 82% 0.00in /  0mm 62 W/m2
15:39 33.2 °F /  0.7 °C 28.3 °F /  -2.1 °C 30.06in /  1017.8hPa Calm     82% 0.00in /  0mm 56 W/m2
15:44 33.2 °F /  0.7 °C 28.3 °F /  -2.1 °C 30.06in /  1017.8hPa Calm     82% 0.00in /  0mm 54 W/m2
15:49 33.1 °F /  0.6 °C 28.2 °F /  -2.1 °C 30.06in /  1017.8hPa Calm     82% 0.00in /  0mm 54 W/m2
15:54 33.1 °F /  0.6 °C 28.2 °F /  -2.1 °C 30.06in /  1017.8hPa Calm     82% 0.00in /  0mm 47 W/m2
15:59 33 °F /  0.6 °C 28.1 °F /  -2.2 °C 30.06in /  1017.8hPa Calm     82% 0.00in /  0mm 39 W/m2
16:00 33 °F /  0.6 °C 28.1 °F /  -2.2 °C 30.06in /  1017.8hPa Calm     82% 0.00in /  0mm 37 W/m2
16:09 32.9 °F /  0.5 °C 28 °F /  -2.2 °C 30.06in /  1017.8hPa Calm     82% 0.00in /  0mm 40 W/m2
16:14 32.9 °F /  0.5 °C 28 °F /  -2.2 °C 30.07in /  1018.2hPa Calm     82% 0.00in /  0mm 33 W/m2
16:19 32.8 °F /  0.4 °C 27.9 °F /  -2.3 °C 30.07in /  1018.2hPa Calm     82% 0.00in /  0mm 26 W/m2
16:24 32.8 °F /  0.4 °C 27.9 °F /  -2.3 °C 30.07in /  1018.2hPa Calm     82% 0.00in /  0mm 23 W/m2
16:29 32.7 °F /  0.4 °C 27.9 °F /  -2.3 °C 30.07in /  1018.2hPa Calm     82% 0.00in /  0mm 23 W/m2
16:34 32.7 °F /  0.4 °C 27.8 °F /  -2.3 °C 30.07in /  1018.2hPa Calm     82% 0.00in /  0mm 19 W/m2
16:39 32.6 °F /  0.3 °C 27.7 °F /  -2.4 °C 30.06in /  1017.8hPa Calm     82% 0.00in /  0mm 16 W/m2
16:44 32.6 °F /  0.3 °C 27.7 °F /  -2.4 °C 30.06in /  1017.8hPa Calm     82% 0.00in /  0mm 11 W/m2
16:49 32.5 °F /  0.3 °C 27.7 °F /  -2.4 °C 30.06in /  1017.8hPa Calm     82% 0.00in /  0mm 7 W/m2
16:54 32.5 °F /  0.3 °C 27.6 °F /  -2.4 °C 30.06in /  1017.8hPa Calm     82% 0.00in /  0mm 5 W/m2
16:59 32.4 °F /  0.2 °C 27.6 °F /  -2.4 °C 30.06in /  1017.8hPa Calm     82% 0.00in /  0mm 0 W/m2
17:04 32.4 °F /  0.2 °C 27.5 °F /  -2.5 °C 30.06in /  1017.8hPa Calm     82% 0.00in /  0mm 0 W/m2
17:09 32.3 °F /  0.2 °C 27.4 °F /  -2.6 °C 30.06in /  1017.8hPa Calm     82% 0.00in /  0mm 0 W/m2
17:14 32.3 °F /  0.2 °C 27.7 °F /  -2.4 °C 30.06in /  1017.8hPa Calm     82.9% 0.00in /  0mm 0 W/m2
17:19 32.3 °F /  0.2 °C 27.5 °F /  -2.5 °C 30.06in /  1017.8hPa Calm     82.5% 0.00in /  0mm 0 W/m2
17:24 32.2 °F /  0.1 °C 27.3 °F /  -2.6 °C 30.06in /  1017.8hPa Calm     82% 0.00in /  0mm 0 W/m2
Hartford County Weather
Compliments of Weather Underground - 4 mb